Time;durP1;ratioP1;P1;durP2;ratioP2;P2;SDS_P1;SDS_P2;PMS_P1;PMS_P2;Temp;Humidity;BMP_temperature;BMP_pressure;BME280_temperature;BME280_humidity;BME280_pressure;Samples;Min_cycle;Max_cycle;Signal;HPM_P1;HPM_P2
2022/07/29 00:02:00;;;;;;;18.42;15.50;;;17.20;99.90;;;;;;4941251;28;20441;-82
2022/07/29 00:04:48;;;;;;;18.27;15.30;;;17.10;99.90;;;;;;4942165;28;20357;-82
2022/07/29 00:07:36;;;;;;;21.95;16.40;;;17.10;99.90;;;;;;4968753;28;20043;-81
2022/07/29 00:10:23;;;;;;;18.92;15.52;;;17.10;99.90;;;;;;4940987;28;20055;-82
2022/07/29 00:13:12;;;;;;;20.30;18.08;;;17.10;99.90;;;;;;4944258;28;20342;-82
2022/07/29 00:15:59;;;;;;;23.65;20.08;;;17.00;99.90;;;;;;4956705;28;20133;-83
2022/07/29 00:18:51;;;;;;;21.38;19.02;;;16.90;99.90;;;;;;4940014;29;20049;-82
2022/07/29 00:21:38;;;;;;;20.33;17.77;;;16.90;99.90;;;;;;4939031;29;20110;-82
2022/07/29 00:24:25;;;;;;;26.00;20.63;;;16.90;99.90;;;;;;4944597;28;20075;-83
2022/07/29 00:27:12;;;;;;;17.65;13.73;;;16.90;99.90;;;;;;4945506;28;20145;-82
2022/07/29 00:29:59;;;;;;;16.10;12.05;;;16.90;99.90;;;;;;4928856;29;20165;-82
2022/07/29 00:32:47;;;;;;;16.00;11.48;;;16.90;99.90;;;;;;4953243;28;20051;-81
2022/07/29 00:35:46;;;;;;;12.65;10.52;;;16.90;96.70;;;;;;4946256;28;20480;-81
2022/07/29 00:38:35;;;;;;;12.05;10.20;;;16.90;78.00;;;;;;4963496;28;20043;-81
2022/07/29 00:41:22;;;;;;;10.93;9.82;;;16.90;40.50;;;;;;4953054;28;20053;-82
2022/07/29 00:44:09;;;;;;;12.02;9.68;;;16.80;20.20;;;;;;4934304;29;20147;-82
2022/07/29 00:46:57;;;;;;;10.65;9.15;;;16.70;16.60;;;;;;4938490;29;20047;-82
2022/07/29 00:49:44;;;;;;;11.57;9.38;;;16.70;10.30;;;;;;4943287;29;20066;-83
2022/07/29 00:52:36;;;;;;;10.45;9.45;;;16.70;1.00;;;;;;4943690;29;20046;-82
2022/07/29 00:55:24;;;;;;;11.05;9.95;;;16.70;1.00;;;;;;4945648;29;20058;-81
2022/07/29 00:58:16;;;;;;;13.90;9.35;;;16.70;1.00;;;;;;4957688;29;20142;-82
2022/07/29 01:01:06;;;;;;;13.90;8.90;;;16.70;1.00;;;;;;4945576;28;20046;-82
2022/07/29 01:03:53;;;;;;;11.18;9.93;;;16.60;1.00;;;;;;4946912;28;20561;-81
2022/07/29 01:06:42;;;;;;;12.15;10.32;;;16.60;2.40;;;;;;4952322;29;20163;-83
2022/07/29 01:09:34;;;;;;;24.33;11.15;;;16.60;23.00;;;;;;4950639;28;20443;-82
2022/07/29 01:12:37;;;;;;;12.40;10.13;;;16.60;47.40;;;;;;4942680;28;20047;-81
2022/07/29 01:15:24;;;;;;;12.63;11.23;;;16.60;34.70;;;;;;4942879;29;20051;-81
2022/07/29 01:18:39;;;;;;;13.13;11.23;;;16.60;26.50;;;;;;4949225;28;20118;-83
2022/07/29 01:21:51;;;;;;;13.25;10.57;;;16.50;32.40;;;;;;4939798;29;20051;-83
2022/07/29 01:25:12;;;;;;;10.73;9.73;;;16.60;25.20;;;;;;4958709;28;20078;-83
2022/07/29 01:27:59;;;;;;;12.85;9.52;;;16.50;17.10;;;;;;4943396;29;20452;-82
2022/07/29 01:30:49;;;;;;;15.40;9.65;;;16.50;15.30;;;;;;4943582;29;20051;-81
2022/07/29 01:33:51;;;;;;;10.68;9.27;;;16.50;10.20;;;;;;4933526;29;20118;-82
2022/07/29 01:36:50;;;;;;;11.70;10.50;;;16.50;1.00;;;;;;4939200;28;20047;-82
2022/07/29 01:39:39;;;;;;;11.15;9.82;;;16.50;1.00;;;;;;4951492;28;20050;-82
2022/07/29 01:42:26;;;;;;;12.32;10.68;;;16.50;1.00;;;;;;4946229;29;20062;-83
2022/07/29 01:45:24;;;;;;;12.65;11.35;;;16.50;16.90;;;;;;4943430;28;20074;-83
2022/07/29 01:48:30;;;;;;;14.50;12.68;;;16.50;26.50;;;;;;4959723;28;20051;-83
2022/07/29 01:51:29;;;;;;;16.35;11.73;;;16.40;35.10;;;;;;4952091;28;20114;-83
2022/07/29 01:54:37;;;;;;;12.98;11.77;;;16.30;35.90;;;;;;4942174;29;20138;-84
2022/07/29 01:57:30;;;;;;;20.20;12.90;;;16.30;52.50;;;;;;4948027;28;20054;-83
2022/07/29 02:00:18;;;;;;;16.95;12.80;;;16.10;83.20;;;;;;4938967;29;20095;-83
2022/07/29 02:03:13;;;;;;;14.75;13.27;;;16.10;96.40;;;;;;4934963;29;20373;-83
2022/07/29 02:06:07;;;;;;;14.00;12.32;;;16.00;99.90;;;;;;4941577;29;20489;-84
2022/07/29 02:08:56;;;;;;;12.45;10.38;;;16.00;99.90;;;;;;4943000;29;20063;-83
2022/07/29 02:11:49;;;;;;;13.68;12.05;;;15.90;99.90;;;;;;4952713;28;20396;-84
2022/07/29 02:14:40;;;;;;;13.48;11.13;;;15.90;99.90;;;;;;4967079;28;20059;-83
2022/07/29 02:17:40;;;;;;;11.57;9.10;;;16.10;99.90;;;;;;4943998;28;20052;-83
2022/07/29 02:20:29;;;;;;;9.15;8.30;;;16.20;99.90;;;;;;4940521;29;20051;-82
2022/07/29 02:23:20;;;;;;;10.23;7.97;;;16.30;99.90;;;;;;4942423;28;20118;-82
2022/07/29 02:26:09;;;;;;;12.37;9.30;;;16.40;54.30;;;;;;4946892;28;20053;-83
2022/07/29 02:28:58;;;;;;;9.95;9.00;;;16.30;25.40;;;;;;4944383;28;20294;-84
2022/07/29 02:31:48;;;;;;;9.32;8.43;;;16.30;18.10;;;;;;4968073;28;20055;-84
2022/07/29 02:34:41;;;;;;;10.95;9.30;;;16.20;17.10;;;;;;4940761;29;20079;-83
2022/07/29 02:37:32;;;;;;;10.38;9.48;;;16.20;17.50;;;;;;4938691;28;20114;-83
2022/07/29 02:40:19;;;;;;;9.73;7.88;;;16.20;4.90;;;;;;4941568;29;20118;-83
2022/07/29 02:43:08;;;;;;;9.48;8.57;;;16.20;11.90;;;;;;4942796;29;20054;-84
2022/07/29 02:45:58;;;;;;;8.52;7.60;;;16.20;1.00;;;;;;4937944;28;20047;-83
2022/07/29 02:48:57;;;;;;;8.68;7.68;;;16.10;1.00;;;;;;4942949;29;20043;-83
2022/07/29 02:51:53;;;;;;;10.05;9.05;;;16.20;1.00;;;;;;4933080;29;20075;-83
2022/07/29 02:55:12;;;;;;;11.70;9.70;;;16.10;1.00;;;;;;4945735;28;20065;-84
2022/07/29 02:58:05;;;;;;;14.23;9.65;;;16.10;1.00;;;;;;4935382;28;20039;-83
2022/07/29 03:00:53;;;;;;;11.43;10.27;;;16.00;2.40;;;;;;4936223;29;20043;-83
2022/07/29 03:03:44;;;;;;;10.57;9.48;;;15.90;29.60;;;;;;4952896;28;20082;-83
2022/07/29 03:06:34;;;;;;;12.30;10.73;;;15.90;45.50;;;;;;4946587;28;20062;-83
2022/07/29 03:09:26;;;;;;;15.38;12.30;;;15.90;77.30;;;;;;4942199;28;20313;-83
2022/07/29 03:12:16;;;;;;;12.65;11.32;;;16.00;97.50;;;;;;4932721;29;20043;-82
2022/07/29 03:15:05;;;;;;;15.18;12.32;;;16.10;99.70;;;;;;4941978;29;20110;-83
2022/07/29 03:17:55;;;;;;;17.15;13.07;;;16.10;98.30;;;;;;4942611;28;20051;-83
2022/07/29 03:20:45;;;;;;;15.73;13.85;;;16.00;99.90;;;;;;4953896;28;20105;-82
2022/07/29 03:23:32;;;;;;;14.00;11.85;;;16.00;99.90;;;;;;4945193;28;20097;-82
2022/07/29 03:26:25;;;;;;;14.18;11.93;;;16.00;99.90;;;;;;4944312;28;20361;-83
2022/07/29 03:29:15;;;;;;;11.73;10.55;;;16.00;99.90;;;;;;4945704;29;20389;-82
2022/07/29 03:32:06;;;;;;;14.18;10.75;;;16.10;99.70;;;;;;4953416;28;20046;-83
2022/07/29 03:34:57;;;;;;;14.38;11.10;;;16.00;74.00;;;;;;4940841;28;20383;-83
2022/07/29 03:37:45;;;;;;;13.52;11.20;;;15.90;63.80;;;;;;4943789;28;20055;-83
2022/07/29 03:40:40;;;;;;;12.50;11.05;;;15.90;63.10;;;;;;4938862;29;20055;-84
2022/07/29 03:43:32;;;;;;;13.30;10.85;;;15.80;72.50;;;;;;4940875;29;20051;-84
2022/07/29 03:46:26;;;;;;;12.30;10.68;;;15.70;72.00;;;;;;4930999;29;20051;-83
2022/07/29 03:49:18;;;;;;;12.00;10.85;;;15.60;90.80;;;;;;4954963;28;20115;-84
2022/07/29 03:52:06;;;;;;;12.13;10.82;;;15.40;96.70;;;;;;4941592;28;20043;-83
2022/07/29 03:54:56;;;;;;;13.02;11.68;;;15.30;99.90;;;;;;4950802;28;20046;-84
2022/07/29 03:57:46;;;;;;;13.52;11.02;;;15.10;99.90;;;;;;4939849;29;20047;-83
2022/07/29 04:00:37;;;;;;;10.75;9.70;;;15.10;99.90;;;;;;4945727;28;20136;-83
2022/07/29 04:04:01;;;;;;;12.43;11.13;;;15.00;99.90;;;;;;4955277;28;20051;-82
2022/07/29 04:07:16;;;;;;;12.48;11.23;;;15.00;99.90;;;;;;4943179;28;20062;-83
2022/07/29 04:10:04;;;;;;;14.10;10.98;;;14.90;99.90;;;;;;4956710;28;20119;-83
2022/07/29 04:12:52;;;;;;;13.40;10.85;;;14.80;99.90;;;;;;4944874;28;20445;-83
2022/07/29 04:15:44;;;;;;;14.38;12.88;;;14.90;99.90;;;;;;4935723;29;20047;-83
2022/07/29 04:18:32;;;;;;;12.25;11.05;;;15.00;99.90;;;;;;4956140;28;20043;-82
2022/07/29 04:21:19;;;;;;;13.13;11.52;;;15.00;99.90;;;;;;4943881;28;20066;-84
2022/07/29 04:24:07;;;;;;;13.00;11.70;;;15.20;99.90;;;;;;4937475;28;20047;-85
2022/07/29 04:26:54;;;;;;;12.95;10.40;;;15.10;99.90;;;;;;4937363;29;20058;-85
2022/07/29 04:29:42;;;;;;;13.52;11.13;;;15.10;99.90;;;;;;4948462;28;20051;-84
2022/07/29 04:32:43;;;;;;;12.68;11.30;;;15.10;99.90;;;;;;4955674;28;20134;-83
2022/07/29 04:35:33;;;;;;;14.00;12.05;;;15.10;99.90;;;;;;4938021;28;20043;-84
2022/07/29 04:38:24;;;;;;;15.60;13.30;;;15.10;99.90;;;;;;4958315;28;20043;-84
2022/07/29 04:41:13;;;;;;;17.02;15.25;;;15.10;99.90;;;;;;4952050;28;20043;-85
2022/07/29 04:44:08;;;;;;;15.00;13.00;;;15.20;99.90;;;;;;4947044;28;20438;-84
2022/07/29 04:46:59;;;;;;;17.30;15.48;;;15.30;99.90;;;;;;4939283;28;20396;-83
2022/07/29 04:49:46;;;;;;;20.40;17.35;;;15.40;99.90;;;;;;4942511;29;20382;-82
2022/07/29 04:52:37;;;;;;;18.63;16.02;;;15.40;99.90;;;;;;4951596;28;20050;-84
2022/07/29 04:55:25;;;;;;;16.92;15.07;;;15.50;99.90;;;;;;4951476;28;20346;-82
2022/07/29 04:58:12;;;;;;;16.00;14.02;;;15.60;99.90;;;;;;4949998;28;20059;-82
2022/07/29 05:00:59;;;;;;;13.15;11.85;;;15.70;99.90;;;;;;4938871;28;20063;-83
2022/07/29 05:03:47;;;;;;;25.05;20.90;;;15.80;99.90;;;;;;4950116;28;20536;-84
2022/07/29 05:06:34;;;;;;;18.35;15.25;;;15.90;99.90;;;;;;4938405;29;20107;-86
2022/07/29 05:09:23;;;;;;;15.35;11.65;;;15.90;99.90;;;;;;4941450;28;20039;-84
2022/07/29 05:12:11;;;;;;;17.17;15.35;;;16.10;99.90;;;;;;4944710;29;20050;-85
2022/07/29 05:14:59;;;;;;;18.15;13.55;;;16.20;99.90;;;;;;4936494;28;20050;-85
2022/07/29 05:17:46;;;;;;;14.10;12.60;;;16.20;99.90;;;;;;4946484;28;20365;-84
2022/07/29 05:20:35;;;;;;;12.48;11.13;;;16.20;99.90;;;;;;4939211;29;20150;-84
2022/07/29 05:23:23;;;;;;;11.02;9.80;;;16.30;99.90;;;;;;4941405;28;20044;-85
2022/07/29 05:26:11;;;;;;;11.25;9.50;;;16.40;99.90;;;;;;4941556;28;20047;-84
2022/07/29 05:28:58;;;;;;;10.23;9.23;;;16.50;50.10;;;;;;4948498;28;20050;-85
2022/07/29 05:31:46;;;;;;;12.30;10.00;;;16.60;1.00;;;;;;4951895;28;20142;-83
2022/07/29 05:34:33;;;;;;;13.10;11.77;;;16.70;1.00;;;;;;4937968;28;20047;-84
2022/07/29 05:37:23;;;;;;;13.57;12.10;;;16.70;1.00;;;;;;4942490;29;20075;-84
2022/07/29 05:40:10;;;;;;;14.55;12.98;;;16.80;1.00;;;;;;4950042;28;20102;-83
2022/07/29 05:43:00;;;;;;;13.82;10.73;;;16.90;1.00;;;;;;4947601;28;20505;-82
2022/07/29 05:45:47;;;;;;;10.98;9.38;;;16.90;99.90;;;;;;4938658;28;20047;-82
2022/07/29 05:48:36;;;;;;;9.43;8.15;;;17.00;99.90;;;;;;4943103;28;20469;-81
2022/07/29 05:51:26;;;;;;;8.98;7.68;;;17.00;99.90;;;;;;4945374;29;20094;-81
2022/07/29 05:54:13;;;;;;;9.40;8.10;;;17.00;99.90;;;;;;4941344;28;20376;-80
2022/07/29 05:57:06;;;;;;;12.43;6.88;;;17.20;99.90;;;;;;4936558;28;20106;-82
2022/07/29 05:59:53;;;;;;;11.02;7.32;;;17.20;1.00;;;;;;4942347;29;20047;-82
2022/07/29 06:02:46;;;;;;;9.07;7.20;;;17.40;99.90;;;;;;4943067;28;20207;-81
2022/07/29 06:05:35;;;;;;;9.15;6.57;;;17.40;1.00;;;;;;4936389;28;20047;-84
2022/07/29 06:08:22;;;;;;;7.40;6.47;;;17.50;1.00;;;;;;4936913;29;20074;-82
2022/07/29 06:11:09;;;;;;;7.13;6.43;;;17.60;99.90;;;;;;4946835;28;20053;-80
2022/07/29 06:14:03;;;;;;;7.13;5.78;;;17.70;1.00;;;;;;4949822;28;20047;-85
2022/07/29 06:16:50;;;;;;;8.00;5.72;;;17.90;99.90;;;;;;4945186;28;20046;-84
2022/07/29 06:19:37;;;;;;;8.32;5.78;;;18.10;12.40;;;;;;4936737;28;20047;-81
2022/07/29 06:22:25;;;;;;;6.25;5.25;;;18.30;99.90;;;;;;4936214;29;20066;-84
2022/07/29 06:25:12;;;;;;;5.15;4.65;;;18.50;99.90;;;;;;4938699;29;20122;-86
2022/07/29 06:27:59;;;;;;;5.78;4.78;;;18.70;1.00;;;;;;4941307;29;20129;-83
2022/07/29 06:30:49;;;;;;;7.10;5.18;;;18.80;99.90;;;;;;4953434;29;20395;-84
2022/07/29 06:33:41;;;;;;;5.63;5.10;;;18.90;87.10;;;;;;4942094;29;20401;-84
2022/07/29 06:36:40;;;;;;;6.43;4.90;;;19.20;1.00;;;;;;4942151;29;20051;-84
2022/07/29 06:39:37;;;;;;;5.65;4.97;;;19.40;99.90;;;;;;4933307;29;20079;-85
2022/07/29 06:42:25;;;;;;;7.55;4.88;;;19.60;99.90;;;;;;4957431;28;20039;-84
2022/07/29 06:45:12;;;;;;;8.18;5.45;;;19.70;99.90;;;;;;4949048;28;20050;-83
2022/07/29 06:48:00;;;;;;;8.88;4.80;;;19.80;99.90;;;;;;4944055;28;20068;-83
2022/07/29 06:50:47;;;;;;;9.82;5.22;;;19.80;1.60;;;;;;4960615;28;20075;-82
2022/07/29 06:53:35;;;;;;;6.97;5.03;;;19.90;1.00;;;;;;4960465;28;20047;-86
2022/07/29 06:56:23;;;;;;;9.63;5.07;;;19.80;1.00;;;;;;4948287;28;20119;-84
2022/07/29 06:59:12;;;;;;;6.40;4.90;;;20.00;1.00;;;;;;4965687;28;20099;-84
2022/07/29 07:02:02;;;;;;;7.50;4.95;;;20.10;1.00;;;;;;4952111;28;20047;-83
2022/07/29 07:04:52;;;;;;;9.98;4.93;;;20.30;1.00;;;;;;4950157;29;20051;-88
2022/07/29 07:07:40;;;;;;;6.22;5.13;;;20.50;1.00;;;;;;4952838;29;20043;-84
2022/07/29 07:10:30;;;;;;;8.98;5.18;;;20.70;99.90;;;;;;4965524;28;20074;-84
2022/07/29 07:13:18;;;;;;;9.40;5.63;;;20.80;99.90;;;;;;4960549;28;20055;-86
2022/07/29 07:16:05;;;;;;;8.93;4.82;;;20.90;99.90;;;;;;4939863;28;20517;-86
2022/07/29 07:18:52;;;;;;;8.57;5.32;;;21.00;99.90;;;;;;4953731;29;20449;-88
2022/07/29 07:21:40;;;;;;;6.47;5.25;;;21.10;99.90;;;;;;4968861;28;20043;-87
2022/07/29 07:24:27;;;;;;;8.15;4.95;;;21.00;99.90;;;;;;4961841;28;20109;-86
2022/07/29 07:27:14;;;;;;;8.23;5.00;;;20.60;80.10;;;;;;4927599;29;20039;-87
2022/07/29 07:30:05;;;;;;;6.72;5.25;;;20.70;98.90;;;;;;4951898;29;20531;-89
2022/07/29 07:32:52;;;;;;;6.90;4.70;;;21.10;56.50;;;;;;4957082;28;20044;-90
2022/07/29 07:35:41;;;;;;;7.60;4.60;;;21.80;1.00;;;;;;4959284;28;20050;-92
2022/07/29 07:38:28;;;;;;;8.45;5.22;;;22.20;99.90;;;;;;4942423;29;20055;-93
2022/07/29 07:41:22;;;;;;;8.38;5.03;;;22.10;99.90;;;;;;4950855;28;20393;-92
2022/07/29 07:44:11;;;;;;;6.45;4.78;;;22.20;99.90;;;;;;4944218;28;20039;-91
2022/07/29 07:47:07;;;;;;;6.65;4.95;;;22.20;99.90;;;;;;4945960;28;20454;-88
2022/07/29 07:50:01;;;;;;;6.50;5.03;;;21.70;99.90;;;;;;4948280;28;20145;-88
2022/07/29 07:52:57;;;;;;;6.95;5.65;;;21.60;99.90;;;;;;4940112;28;20056;-89
2022/07/29 07:55:45;;;;;;;5.60;5.00;;;21.80;99.90;;;;;;4942940;29;20047;-90
2022/07/29 07:58:52;;;;;;;5.75;4.75;;;22.40;99.90;;;;;;4943882;28;20126;-89
2022/07/29 08:01:42;;;;;;;6.15;4.18;;;23.10;99.90;;;;;;4941047;28;20043;-89
2022/07/29 08:04:42;;;;;;;5.10;4.60;;;23.70;99.90;;;;;;4948110;29;20047;-87
2022/07/29 08:07:31;;;;;;;9.43;5.05;;;24.40;99.90;;;;;;4946235;29;20129;-82
2022/07/29 08:13:30;;;;;;;8.75;4.72;;;24.30;99.90;;;;;;4956207;29;20058;-85
2022/07/29 08:16:20;;;;;;;6.07;4.25;;;24.40;99.90;;;;;;4937851;29;20051;-87
2022/07/29 08:19:07;;;;;;;7.63;4.45;;;24.60;99.90;;;;;;4939697;29;20051;-86
2022/07/29 08:21:54;;;;;;;7.18;4.85;;;24.80;96.20;;;;;;4954146;28;20050;-87
2022/07/29 08:24:42;;;;;;;6.25;4.38;;;24.90;91.80;;;;;;4958117;28;20476;-86
2022/07/29 08:27:32;;;;;;;9.32;4.57;;;24.80;77.90;;;;;;4942689;29;20349;-87
2022/07/29 08:30:30;;;;;;;6.03;4.25;;;24.80;84.90;;;;;;4937172;28;20473;-86
2022/07/29 08:33:21;;;;;;;6.03;4.30;;;25.00;41.30;;;;;;4939342;29;20051;-89
2022/07/29 08:36:12;;;;;;;4.30;3.55;;;25.20;21.50;;;;;;4942613;29;20090;-86
2022/07/29 08:39:01;;;;;;;8.38;4.03;;;25.70;4.40;;;;;;4945731;28;20044;-89
2022/07/29 08:42:16;;;;;;;9.93;4.10;;;25.60;1.00;;;;;;4943344;29;20533;-90
2022/07/29 08:45:46;;;;;;;6.63;3.33;;;25.90;1.00;;;;;;4948166;29;20043;-92
2022/07/29 08:48:36;;;;;;;5.80;3.33;;;26.40;1.00;;;;;;4938391;29;20484;-89
2022/07/29 08:51:26;;;;;;;9.52;3.85;;;26.50;1.00;;;;;;4942211;29;20043;-88
2022/07/29 08:54:19;;;;;;;4.80;3.65;;;26.70;1.00;;;;;;4944384;28;20054;-89
2022/07/29 08:57:24;;;;;;;4.95;3.00;;;27.20;1.00;;;;;;4942849;29;20036;-87
2022/07/29 09:00:14;;;;;;;4.13;3.10;;;27.20;1.00;;;;;;4943593;28;20066;-91
2022/07/29 09:03:04;;;;;;;7.70;3.53;;;27.80;1.00;;;;;;4932219;29;20052;-87
2022/07/29 09:05:52;;;;;;;5.63;3.20;;;27.90;1.00;;;;;;4940556;28;20046;-90
2022/07/29 09:08:42;;;;;;;5.43;3.30;;;27.30;1.00;;;;;;4945100;28;20051;-90
2022/07/29 09:11:32;;;;;;;8.32;3.22;;;27.40;1.00;;;;;;4954283;28;20050;-88
2022/07/29 09:14:20;;;;;;;6.28;3.22;;;28.00;1.00;;;;;;4943949;28;20046;-89
2022/07/29 09:17:10;;;;;;;4.57;3.40;;;28.60;1.00;;;;;;4950535;28;20349;-89
2022/07/29 09:20:09;;;;;;;11.60;3.83;;;28.50;1.00;;;;;;4940116;28;20062;-90
2022/07/29 09:22:56;;;;;;;6.45;3.38;;;28.20;1.00;;;;;;4940289;29;20047;-91
2022/07/29 09:25:46;;;;;;;7.10;3.78;;;28.60;1.00;;;;;;4946660;29;20047;-89
2022/07/29 09:28:33;;;;;;;8.85;3.33;;;28.80;1.00;;;;;;4945304;28;20053;-91
2022/07/29 09:31:36;;;;;;;6.95;3.80;;;28.50;1.00;;;;;;4949813;28;20059;-87
2022/07/29 09:34:25;;;;;;;;;;;28.90;1.00;;;;;;4958536;28;20137;-89
2022/07/29 09:37:26;;;;;;;8.02;3.45;;;29.60;1.00;;;;;;4944430;29;20012;-88
2022/07/29 09:40:19;;;;;;;3.80;3.23;;;29.60;1.00;;;;;;4949297;28;20449;-88
2022/07/29 09:43:12;;;;;;;5.03;3.65;;;28.50;1.00;;;;;;4946037;29;20050;-86
2022/07/29 09:46:13;;;;;;;4.38;3.83;;;27.80;1.00;;;;;;4942749;29;20051;-86
2022/07/29 09:49:10;;;;;;;4.65;3.88;;;27.20;1.00;;;;;;4943247;29;20062;-88
2022/07/29 09:52:05;;;;;;;9.15;3.80;;;26.50;1.00;;;;;;4945865;28;20090;-88
2022/07/29 09:55:03;;;;;;;5.80;3.90;;;26.60;1.00;;;;;;4953968;29;20043;-90
2022/07/29 09:57:51;;;;;;;6.60;3.92;;;26.80;1.00;;;;;;4940872;28;22404;-87
2022/07/29 10:00:42;;;;;;;4.15;3.42;;;27.60;1.00;;;;;;4942612;29;20051;-90
2022/07/29 10:03:32;;;;;;;8.30;3.88;;;28.90;1.00;;;;;;4943983;29;20049;-87
2022/07/29 10:06:19;;;;;;;5.97;3.75;;;29.40;1.00;;;;;;4940535;29;20055;-87
2022/07/29 10:09:09;;;;;;;6.93;3.72;;;29.60;1.00;;;;;;4957043;28;20047;-87
2022/07/29 10:12:11;;;;;;;7.53;3.55;;;29.80;1.00;;;;;;4936765;29;20051;-89
2022/07/29 10:15:01;;;;;;;5.28;3.00;;;30.10;1.00;;;;;;4939342;28;20066;-85
2022/07/29 10:17:49;;;;;;;4.63;3.97;;;31.20;1.00;;;;;;4939734;29;20485;-83
2022/07/29 10:20:39;;;;;;;8.43;3.58;;;31.10;1.00;;;;;;4943594;28;20047;-85
2022/07/29 10:23:30;;;;;;;7.63;3.65;;;30.90;1.00;;;;;;4931807;28;20050;-88
2022/07/29 10:26:36;;;;;;;5.00;3.25;;;31.30;1.00;;;;;;4956589;28;20049;-85
2022/07/29 10:29:26;;;;;;;5.07;2.97;;;31.30;1.00;;;;;;4953841;28;20372;-87
2022/07/29 10:32:34;;;;;;;4.43;3.50;;;30.70;1.00;;;;;;4942781;29;20043;-88
2022/07/29 10:35:24;;;;;;;8.63;3.42;;;30.70;1.00;;;;;;4948764;28;20055;-88
2022/07/29 10:38:38;;;;;;;6.55;3.60;;;29.80;1.00;;;;;;4940152;28;20079;-86
2022/07/29 10:42:09;;;;;;;7.28;2.70;;;29.30;1.00;;;;;;4938142;29;20501;-86
2022/07/29 10:44:58;;;;;;;5.32;3.20;;;29.10;1.00;;;;;;4942040;29;20057;-87
2022/07/29 10:47:45;;;;;;;3.63;2.80;;;29.00;1.00;;;;;;4936634;28;20058;-89
2022/07/29 10:51:00;;;;;;;3.13;2.33;;;28.80;1.00;;;;;;4950382;29;20461;-90
2022/07/29 10:53:52;;;;;;;9.05;3.03;;;28.20;1.00;;;;;;4945688;29;20054;-89
2022/07/29 10:56:40;;;;;;;9.95;3.80;;;26.70;1.00;;;;;;4945999;28;20042;-89
2022/07/29 10:59:31;;;;;;;12.50;5.03;;;25.30;1.00;;;;;;4941844;29;20062;-87
2022/07/29 11:02:51;;;;;;;;;;;23.90;1.00;;;;;;4941927;28;20075;-85
2022/07/29 11:05:55;;;;;;;16.23;6.78;;;22.40;1.00;;;;;;4939445;29;19926;-88
2022/07/29 11:09:20;;;;;;;18.20;6.78;;;20.70;99.90;;;;;;4949399;28;20516;-89
2022/07/29 11:12:35;;;;;;;12.85;6.60;;;19.70;99.90;;;;;;4943169;29;20106;-87
2022/07/29 11:15:27;;;;;;;16.25;9.52;;;19.00;99.90;;;;;;4941527;29;20118;-89
2022/07/29 11:18:19;;;;;;;18.13;9.02;;;18.60;96.10;;;;;;4940756;29;20054;-87
2022/07/29 11:21:36;;;;;;;22.80;11.98;;;18.00;1.00;;;;;;4942261;29;20055;-87
2022/07/29 11:24:47;;;;;;;22.25;12.20;;;17.80;99.90;;;;;;4956397;28;20471;-88
2022/07/29 11:27:39;;;;;;;15.52;11.60;;;17.80;99.90;;;;;;4953961;28;20054;-90
2022/07/29 11:30:52;;;;;;;10.40;9.07;;;17.90;1.00;;;;;;4946176;29;20047;-87
2022/07/29 11:33:40;;;;;;;11.10;9.38;;;18.10;99.90;;;;;;4953458;28;20051;-87
2022/07/29 11:37:13;;;;;;;11.48;8.52;;;18.10;1.00;;;;;;4941293;29;20540;-89
2022/07/29 11:40:12;;;;;;;12.20;9.15;;;18.20;1.00;;;;;;4940554;29;20039;-90
2022/07/29 11:43:01;;;;;;;14.20;9.43;;;18.30;99.90;;;;;;4946862;29;20039;-90
2022/07/29 11:45:56;;;;;;;11.93;10.47;;;18.20;99.90;;;;;;4948031;29;20039;-88
2022/07/29 11:48:45;;;;;;;12.98;9.73;;;18.20;1.00;;;;;;4946418;29;20291;-90
2022/07/29 11:51:42;;;;;;;14.68;9.68;;;18.10;1.00;;;;;;4943158;28;20825;-91
2022/07/29 11:54:35;;;;;;;15.90;11.45;;;18.20;1.00;;;;;;4944479;28;20055;-89
2022/07/29 11:57:49;;;;;;;19.58;10.80;;;18.30;16.30;;;;;;4942873;28;20371;-89
2022/07/29 12:00:52;;;;;;;11.27;9.23;;;18.20;10.70;;;;;;4944991;28;20051;-88
2022/07/29 12:03:43;;;;;;;11.68;9.43;;;18.20;1.00;;;;;;4949686;28;20479;-88
2022/07/29 12:06:33;;;;;;;9.60;7.82;;;18.20;4.40;;;;;;4942866;28;20457;-87
2022/07/29 12:09:24;;;;;;;9.93;7.78;;;18.20;1.00;;;;;;4939018;29;20051;-88
2022/07/29 12:12:27;;;;;;;9.23;6.50;;;18.30;1.00;;;;;;4943955;28;20062;-89
2022/07/29 12:15:20;;;;;;;12.30;8.02;;;18.40;99.90;;;;;;4948147;28;20058;-90
2022/07/29 12:18:24;;;;;;;10.63;8.40;;;18.50;1.00;;;;;;4936238;29;20392;-90
2022/07/29 12:21:12;;;;;;;10.00;6.50;;;18.70;1.00;;;;;;4958960;28;20047;-90
2022/07/29 12:23:59;;;;;;;8.32;7.38;;;18.70;99.90;;;;;;4952319;28;20113;-90
2022/07/29 12:26:57;;;;;;;10.55;7.38;;;18.90;99.90;;;;;;4944599;29;20043;-88
2022/07/29 12:30:04;;;;;;;11.93;8.00;;;19.10;99.90;;;;;;4945568;28;20553;-89
2022/07/29 12:32:57;;;;;;;10.68;7.95;;;19.30;60.80;;;;;;4951451;28;20599;-90
2022/07/29 12:35:52;;;;;;;6.85;6.15;;;19.70;1.00;;;;;;4942801;28;20453;-90
2022/07/29 12:38:55;;;;;;;8.23;5.55;;;20.20;99.90;;;;;;4960840;28;20050;-88
2022/07/29 12:41:43;;;;;;;8.98;6.72;;;20.40;53.90;;;;;;4944344;28;20039;-87
2022/07/29 12:44:53;;;;;;;8.20;5.90;;;20.40;91.40;;;;;;4945749;29;20057;-88
2022/07/29 12:47:53;;;;;;;11.65;6.40;;;20.30;1.00;;;;;;4938711;28;20047;-87
2022/07/29 12:50:57;;;;;;;8.48;6.10;;;20.20;99.90;;;;;;4947862;28;20452;-88
2022/07/29 12:54:13;;;;;;;8.13;5.82;;;20.10;1.00;;;;;;4945997;28;20048;-86
2022/07/29 12:57:00;;;;;;;12.45;7.60;;;20.10;96.50;;;;;;4950598;29;20122;-85
2022/07/29 13:00:07;;;;;;;9.27;8.07;;;19.80;99.90;;;;;;4947916;28;20122;-89
2022/07/29 13:02:57;;;;;;;11.32;8.50;;;19.30;99.90;;;;;;4954332;28;20487;-88
2022/07/29 13:05:46;;;;;;;10.10;7.65;;;18.90;1.00;;;;;;4942737;29;20050;-88
2022/07/29 13:08:35;;;;;;;13.15;10.93;;;18.60;99.90;;;;;;4939358;28;20366;-89
2022/07/29 13:11:42;;;;;;;18.25;13.45;;;18.50;1.00;;;;;;4948614;28;20047;-88
2022/07/29 13:14:46;;;;;;;21.02;13.65;;;18.50;99.90;;;;;;4953931;28;20058;-88
2022/07/29 13:17:42;;;;;;;17.27;13.50;;;18.50;1.00;;;;;;4942698;29;20055;-90
2022/07/29 13:20:36;;;;;;;16.45;14.68;;;18.50;1.00;;;;;;4944169;28;20151;-88
2022/07/29 13:23:23;;;;;;;18.02;16.13;;;18.60;1.00;;;;;;4945243;29;20039;-90
2022/07/29 13:26:11;;;;;;;22.40;17.73;;;18.70;1.00;;;;;;4943273;28;20440;-90
2022/07/29 13:29:01;;;;;;;19.15;15.60;;;18.90;6.80;;;;;;4935125;29;20465;-89
2022/07/29 13:31:49;;;;;;;16.15;12.63;;;19.30;81.80;;;;;;4940683;29;20511;-86
2022/07/29 13:34:37;;;;;;;14.98;12.13;;;19.40;99.90;;;;;;4937984;29;20051;-89
2022/07/29 13:37:29;;;;;;;13.20;11.32;;;19.60;99.90;;;;;;4938961;29;20047;-89
2022/07/29 13:40:17;;;;;;;9.50;8.60;;;19.80;1.00;;;;;;4944265;29;20414;-89
2022/07/29 13:43:04;;;;;;;13.63;10.93;;;20.00;99.90;;;;;;4932068;28;20044;-88
2022/07/29 13:45:51;;;;;;;13.85;12.38;;;20.20;99.90;;;;;;4942131;28;20433;-88
2022/07/29 13:48:39;;;;;;;11.60;9.98;;;20.40;1.00;;;;;;4942168;29;20515;-89
2022/07/29 13:51:28;;;;;;;11.90;9.52;;;20.80;99.90;;;;;;4936595;29;20039;-90
2022/07/29 13:54:16;;;;;;;9.15;7.72;;;21.10;1.00;;;;;;4955257;28;20047;-88
2022/07/29 13:57:04;;;;;;;8.68;7.35;;;21.50;99.90;;;;;;4937673;29;20047;-87
2022/07/29 13:59:51;;;;;;;6.40;5.70;;;21.90;99.90;;;;;;4946006;28;20043;-87
2022/07/29 14:02:40;;;;;;;7.00;5.60;;;22.30;1.00;;;;;;4943338;29;20043;-89
2022/07/29 14:05:27;;;;;;;9.90;6.75;;;22.60;99.90;;;;;;4942677;28;20047;-87
2022/07/29 14:08:17;;;;;;;8.73;6.13;;;22.70;99.90;;;;;;4936795;28;20039;-86
2022/07/29 14:11:04;;;;;;;7.93;5.65;;;22.90;99.90;;;;;;4956500;28;20043;-89
2022/07/29 14:13:53;;;;;;;8.65;5.85;;;22.90;99.90;;;;;;4956148;28;20058;-87
2022/07/29 14:16:40;;;;;;;7.13;5.40;;;22.90;99.90;;;;;;4939819;29;20047;-87
2022/07/29 14:19:39;;;;;;;6.85;5.07;;;23.10;99.90;;;;;;4938275;29;20047;-87
2022/07/29 14:22:33;;;;;;;6.95;6.22;;;23.30;99.90;;;;;;4940550;28;20054;-86
2022/07/29 14:25:26;;;;;;;8.32;6.47;;;23.50;99.90;;;;;;4941935;28;20366;-86
2022/07/29 14:28:13;;;;;;;6.85;6.03;;;23.30;99.90;;;;;;4955341;28;20043;-85
2022/07/29 14:31:03;;;;;;;8.85;6.22;;;23.30;99.90;;;;;;4938002;29;20047;-85
2022/07/29 14:33:50;;;;;;;7.85;5.85;;;23.20;99.90;;;;;;4942756;28;20047;-84
2022/07/29 14:36:37;;;;;;;10.40;6.22;;;23.00;99.90;;;;;;4932174;29;20467;-83
2022/07/29 14:39:24;;;;;;;9.70;5.82;;;22.90;99.90;;;;;;4941663;28;20174;-84
2022/07/29 14:42:17;;;;;;;8.73;6.50;;;23.00;99.90;;;;;;4943237;29;20126;-86
2022/07/29 14:45:07;;;;;;;9.27;6.97;;;23.00;99.90;;;;;;4950939;29;20091;-82
2022/07/29 14:47:59;;;;;;;9.68;6.30;;;22.80;99.90;;;;;;4922369;28;20062;-84
2022/07/29 14:50:46;;;;;;;11.82;6.85;;;22.50;99.90;;;;;;4934756;29;20051;-86
2022/07/29 14:53:36;;;;;;;7.85;5.50;;;22.60;99.90;;;;;;4944175;28;20058;-85
2022/07/29 14:56:23;;;;;;;5.97;5.18;;;22.60;99.90;;;;;;4938964;28;20055;-85
2022/07/29 15:00:23;;;;;;;10.68;5.30;;;22.80;99.90;;;;;;4946358;28;20039;-82